Pensacola Naval Air Station/Forrest Sherman field
KNPA : now visible

Airfield :











YOU CAN JOIN US ON...

 
LOGIN :

Register | Disclaimer

   EN    FR    IT 

 









Legend :    VFR   Marginal VFR   IFR   Intensive IFR   Very Intensive IFR
Visi :
Ceiling :
>= 8 km
>= 3000ft
5 to 8 km
1000 to 3000 ft
1500m to 5 km
500 to 1000 ft
800 to 1500m
200 to 500 ft
< 800m
< 200 ft
Symbols :   Thunderstorms  Fog  Heavy snow  Heavy precipitations  Wind > 20 kt






- Airport Elevation : 28 ft


KNPA - Pensacola Naval Air Station/Forrest Sherman field

CURRENT METAR :
  • 131456Z 32003KT 10SM TS FEW022 SCT034CB BKN070 BKN140 BKN250 32/25 A3019 RMK TSB44 SLP223 OCNL LTGIC SE TS SE MOV E T2 SET T03220250 51009

EXPIRED METARs :
  • 131444Z 33005KT 10SM TS FEW019 BKN037CB BKN140 BKN250 32/25 A3018 RMK TSB44 OCNL LTGICCG SE TS SE MOV E T2 SET T03220250
  • 131356Z 35006KT 10SM FEW021 SCT034 BKN250 33/26 A3018 RMK SLP221 FIRST T2 SET T03280256

TAF TAF KNPA
Valid from the 12 at 23:00 until the 13 at 23:00 UTC


1223/1323 21010G16KT 9999 VCTS FEW035CB SCT100 SCT250 QNH3003INS
FM130100 VRB05KT 9999 FEW100 SCT250 QNH3004INS
FM131800 20010G18KT 9999 VCTS SCT040CB SCT100 BKN250 QNH2998INS LAST NO AMDS AFT 1223 NEXT 1507 AUTOMATED SENSOR METWATCH 1303 TIL 1314 TX35/1318Z TN26/1311Z FN20034
KZJX FIR / North America



MET'MAP, your aeronautical weather chart ! - Copyright ORBIFLY December 2007 - Disclaimer

ORBIFLY MET'MAP TEAM :

Programming & Development : Alexandra Zaïnal
Original concept : Baudouin d'Aumeries
Technical & hardware support : Manuel Goepfert
Assistance : Marc-Olivier Méhu




SOURCES & CREDITS :

   NOAA       Earth
Advisory